Terminal Aerodrome Forecast
Issued by NWS Wakefield, VA

Home | Current Version | Previous Version | Text Only | Print | Product List | Glossary On
Versions: 1 2 3 4 5 6 7 8 9 10 11 12 13 14 15 16 17 18 19 20 21 22 23 24 25 26 27 28 29 30 31 32 33 34 35
000
FTUS41 KAKQ 231145 RRB
TAFECG
TAF
KECG 231145Z 2312/2412 08012G18KT P6SM -SHRA SCT006 BKN025
      TEMPO 2312/2314 3SM -SHRA BR OVC004
     FM231400 17010KT 5SM BR BKN005
     FM231600 21009KT P6SM BKN025
     FM231800 21008KT P6SM BKN050
     FM240300 27005KT P6SM BKN020
     FM240600 29011KT P6SM -SHRA OVC006
     FM240900 31012G18KT P6SM -SHRA OVC007=

USA.gov is the U.S. government's official web portal to all federal, state and local government web resources and services.